sensor_id;sensor_type;location;lat;lon;timestamp;P1;durP1;ratioP1;P2;durP2;ratioP2
12966;SDS011;6548;49.996;8.238;2023-03-01T00:01:49;15.10;;;6.50;;
12966;SDS011;6548;49.996;8.238;2023-03-01T00:04:14;11.23;;;7.15;;
12966;SDS011;6548;49.996;8.238;2023-03-01T00:06:41;13.48;;;6.43;;
12966;SDS011;6548;49.996;8.238;2023-03-01T00:09:08;12.27;;;7.65;;
12966;SDS011;6548;49.996;8.238;2023-03-01T00:11:33;12.45;;;7.18;;
12966;SDS011;6548;49.996;8.238;2023-03-01T00:14:00;13.15;;;8.35;;
12966;SDS011;6548;49.996;8.238;2023-03-01T00:16:29;14.15;;;7.13;;
12966;SDS011;6548;49.996;8.238;2023-03-01T00:18:58;12.68;;;6.80;;
12966;SDS011;6548;49.996;8.238;2023-03-01T00:21:24;11.57;;;6.50;;
12966;SDS011;6548;49.996;8.238;2023-03-01T00:23:50;12.38;;;6.45;;
12966;SDS011;6548;49.996;8.238;2023-03-01T00:26:17;11.65;;;6.85;;
12966;SDS011;6548;49.996;8.238;2023-03-01T00:28:44;13.35;;;7.60;;
12966;SDS011;6548;49.996;8.238;2023-03-01T00:31:20;14.13;;;7.53;;
12966;SDS011;6548;49.996;8.238;2023-03-01T00:33:47;13.50;;;7.47;;
12966;SDS011;6548;49.996;8.238;2023-03-01T00:36:13;11.98;;;7.85;;
12966;SDS011;6548;49.996;8.238;2023-03-01T00:38:41;10.50;;;7.03;;
12966;SDS011;6548;49.996;8.238;2023-03-01T00:41:15;11.63;;;6.88;;
12966;SDS011;6548;49.996;8.238;2023-03-01T00:43:43;12.35;;;7.65;;
12966;SDS011;6548;49.996;8.238;2023-03-01T00:46:10;14.23;;;8.13;;
12966;SDS011;6548;49.996;8.238;2023-03-01T00:48:38;13.93;;;8.43;;
12966;SDS011;6548;49.996;8.238;2023-03-01T00:51:08;13.82;;;7.28;;
12966;SDS011;6548;49.996;8.238;2023-03-01T00:53:35;12.50;;;6.75;;
12966;SDS011;6548;49.996;8.238;2023-03-01T00:56:02;13.43;;;7.22;;
12966;SDS011;6548;49.996;8.238;2023-03-01T00:58:29;10.32;;;6.43;;
12966;SDS011;6548;49.996;8.238;2023-03-01T01:00:55;14.73;;;7.05;;
12966;SDS011;6548;49.996;8.238;2023-03-01T01:03:21;12.80;;;6.65;;
12966;SDS011;6548;49.996;8.238;2023-03-01T01:05:47;17.50;;;7.65;;
12966;SDS011;6548;49.996;8.238;2023-03-01T01:08:12;12.43;;;6.97;;
12966;SDS011;6548;49.996;8.238;2023-03-01T01:10:38;12.15;;;7.50;;
12966;SDS011;6548;49.996;8.238;2023-03-01T01:13:03;12.00;;;7.00;;
12966;SDS011;6548;49.996;8.238;2023-03-01T01:15:29;16.20;;;7.63;;
12966;SDS011;6548;49.996;8.238;2023-03-01T01:17:58;14.07;;;7.75;;
12966;SDS011;6548;49.996;8.238;2023-03-01T01:20:24;12.23;;;7.60;;
12966;SDS011;6548;49.996;8.238;2023-03-01T01:22:49;14.63;;;7.30;;
12966;SDS011;6548;49.996;8.238;2023-03-01T01:25:16;12.38;;;7.05;;
12966;SDS011;6548;49.996;8.238;2023-03-01T01:27:41;14.23;;;7.95;;
12966;SDS011;6548;49.996;8.238;2023-03-01T01:30:07;14.60;;;7.63;;
12966;SDS011;6548;49.996;8.238;2023-03-01T01:32:33;15.25;;;7.53;;
12966;SDS011;6548;49.996;8.238;2023-03-01T01:34:58;16.55;;;8.07;;
12966;SDS011;6548;49.996;8.238;2023-03-01T01:37:24;11.82;;;7.63;;
12966;SDS011;6548;49.996;8.238;2023-03-01T01:39:56;13.73;;;7.65;;
12966;SDS011;6548;49.996;8.238;2023-03-01T01:42:23;13.25;;;6.85;;
12966;SDS011;6548;49.996;8.238;2023-03-01T01:45:15;14.73;;;7.65;;
12966;SDS011;6548;49.996;8.238;2023-03-01T01:47:50;13.10;;;7.07;;
12966;SDS011;6548;49.996;8.238;2023-03-01T01:50:16;14.00;;;7.22;;
12966;SDS011;6548;49.996;8.238;2023-03-01T01:52:43;14.50;;;8.05;;
12966;SDS011;6548;49.996;8.238;2023-03-01T01:55:11;14.85;;;8.15;;
12966;SDS011;6548;49.996;8.238;2023-03-01T01:57:43;14.48;;;7.90;;
12966;SDS011;6548;49.996;8.238;2023-03-01T02:00:16;15.43;;;7.82;;
12966;SDS011;6548;49.996;8.238;2023-03-01T02:02:44;14.82;;;7.68;;
12966;SDS011;6548;49.996;8.238;2023-03-01T02:07:49;14.32;;;7.65;;
12966;SDS011;6548;49.996;8.238;2023-03-01T02:10:15;16.40;;;7.65;;
12966;SDS011;6548;49.996;8.238;2023-03-01T02:12:40;12.82;;;7.15;;
12966;SDS011;6548;49.996;8.238;2023-03-01T02:15:07;14.50;;;7.53;;
12966;SDS011;6548;49.996;8.238;2023-03-01T02:17:33;15.02;;;7.45;;
12966;SDS011;6548;49.996;8.238;2023-03-01T02:20:13;13.60;;;8.85;;
12966;SDS011;6548;49.996;8.238;2023-03-01T02:22:52;12.80;;;7.88;;
12966;SDS011;6548;49.996;8.238;2023-03-01T02:28:05;15.85;;;8.38;;
12966;SDS011;6548;49.996;8.238;2023-03-01T02:30:38;15.77;;;7.97;;
12966;SDS011;6548;49.996;8.238;2023-03-01T02:33:24;11.32;;;7.47;;
12966;SDS011;6548;49.996;8.238;2023-03-01T02:35:50;17.40;;;9.15;;
12966;SDS011;6548;49.996;8.238;2023-03-01T02:38:18;15.70;;;8.80;;
12966;SDS011;6548;49.996;8.238;2023-03-01T02:40:44;14.50;;;8.07;;
12966;SDS011;6548;49.996;8.238;2023-03-01T02:43:10;14.55;;;8.50;;
12966;SDS011;6548;49.996;8.238;2023-03-01T02:45:38;15.55;;;8.43;;
12966;SDS011;6548;49.996;8.238;2023-03-01T02:48:12;14.10;;;7.82;;
12966;SDS011;6548;49.996;8.238;2023-03-01T02:53:48;17.95;;;8.60;;
12966;SDS011;6548;49.996;8.238;2023-03-01T02:56:32;15.48;;;8.55;;
12966;SDS011;6548;49.996;8.238;2023-03-01T02:58:59;13.13;;;7.50;;
12966;SDS011;6548;49.996;8.238;2023-03-01T03:01:26;16.25;;;9.45;;
12966;SDS011;6548;49.996;8.238;2023-03-01T03:04:01;14.68;;;8.82;;
12966;SDS011;6548;49.996;8.238;2023-03-01T03:06:31;14.85;;;8.60;;
12966;SDS011;6548;49.996;8.238;2023-03-01T03:08:57;17.10;;;8.20;;
12966;SDS011;6548;49.996;8.238;2023-03-01T03:11:22;13.88;;;8.48;;
12966;SDS011;6548;49.996;8.238;2023-03-01T03:13:48;13.90;;;7.88;;
12966;SDS011;6548;49.996;8.238;2023-03-01T03:16:14;14.35;;;8.23;;
12966;SDS011;6548;49.996;8.238;2023-03-01T03:18:40;14.35;;;6.95;;
12966;SDS011;6548;49.996;8.238;2023-03-01T03:21:08;16.63;;;8.30;;
12966;SDS011;6548;49.996;8.238;2023-03-01T03:23:36;18.17;;;7.88;;
12966;SDS011;6548;49.996;8.238;2023-03-01T03:26:02;17.48;;;9.00;;
12966;SDS011;6548;49.996;8.238;2023-03-01T03:28:29;19.48;;;9.50;;
12966;SDS011;6548;49.996;8.238;2023-03-01T03:30:56;15.25;;;8.65;;
12966;SDS011;6548;49.996;8.238;2023-03-01T03:33:21;12.68;;;8.15;;
12966;SDS011;6548;49.996;8.238;2023-03-01T03:35:47;12.57;;;7.32;;
12966;SDS011;6548;49.996;8.238;2023-03-01T03:38:15;17.83;;;8.55;;
12966;SDS011;6548;49.996;8.238;2023-03-01T03:40:44;15.63;;;8.73;;
12966;SDS011;6548;49.996;8.238;2023-03-01T03:43:22;14.60;;;8.35;;
12966;SDS011;6548;49.996;8.238;2023-03-01T03:45:48;15.15;;;8.63;;
12966;SDS011;6548;49.996;8.238;2023-03-01T03:48:15;15.45;;;8.85;;
12966;SDS011;6548;49.996;8.238;2023-03-01T03:50:46;15.45;;;8.68;;
12966;SDS011;6548;49.996;8.238;2023-03-01T03:53:13;16.53;;;8.87;;
12966;SDS011;6548;49.996;8.238;2023-03-01T03:55:38;16.15;;;9.00;;
12966;SDS011;6548;49.996;8.238;2023-03-01T03:58:05;16.40;;;8.80;;
12966;SDS011;6548;49.996;8.238;2023-03-01T04:00:33;16.83;;;9.43;;
12966;SDS011;6548;49.996;8.238;2023-03-01T04:03:00;15.07;;;9.73;;
12966;SDS011;6548;49.996;8.238;2023-03-01T04:05:26;14.52;;;7.55;;
12966;SDS011;6548;49.996;8.238;2023-03-01T04:07:52;17.15;;;9.48;;
12966;SDS011;6548;49.996;8.238;2023-03-01T04:10:26;24.33;;;8.85;;
12966;SDS011;6548;49.996;8.238;2023-03-01T04:12:52;16.42;;;8.60;;
12966;SDS011;6548;49.996;8.238;2023-03-01T04:15:21;15.88;;;8.43;;
12966;SDS011;6548;49.996;8.238;2023-03-01T04:17:49;20.33;;;8.48;;
12966;SDS011;6548;49.996;8.238;2023-03-01T04:20:17;16.20;;;8.63;;
12966;SDS011;6548;49.996;8.238;2023-03-01T04:22:49;18.48;;;9.07;;
12966;SDS011;6548;49.996;8.238;2023-03-01T04:25:16;17.13;;;9.18;;
12966;SDS011;6548;49.996;8.238;2023-03-01T04:27:42;18.63;;;9.23;;
12966;SDS011;6548;49.996;8.238;2023-03-01T04:30:07;19.35;;;9.13;;
12966;SDS011;6548;49.996;8.238;2023-03-01T04:32:34;18.75;;;9.98;;
12966;SDS011;6548;49.996;8.238;2023-03-01T04:34:59;21.58;;;9.38;;
12966;SDS011;6548;49.996;8.238;2023-03-01T04:37:25;20.58;;;9.05;;
12966;SDS011;6548;49.996;8.238;2023-03-01T04:39:51;18.58;;;9.32;;
12966;SDS011;6548;49.996;8.238;2023-03-01T04:42:16;17.10;;;9.65;;
12966;SDS011;6548;49.996;8.238;2023-03-01T04:44:43;20.27;;;10.18;;
12966;SDS011;6548;49.996;8.238;2023-03-01T04:47:09;21.55;;;10.07;;
12966;SDS011;6548;49.996;8.238;2023-03-01T04:49:34;16.10;;;9.18;;
12966;SDS011;6548;49.996;8.238;2023-03-01T04:52:00;18.58;;;9.30;;
12966;SDS011;6548;49.996;8.238;2023-03-01T04:54:32;17.30;;;9.85;;
12966;SDS011;6548;49.996;8.238;2023-03-01T04:57:00;16.98;;;8.48;;
12966;SDS011;6548;49.996;8.238;2023-03-01T04:59:26;18.90;;;9.25;;
12966;SDS011;6548;49.996;8.238;2023-03-01T05:02:08;22.55;;;10.02;;
12966;SDS011;6548;49.996;8.238;2023-03-01T05:04:33;21.13;;;9.23;;
12966;SDS011;6548;49.996;8.238;2023-03-01T05:06:59;19.58;;;9.68;;
12966;SDS011;6548;49.996;8.238;2023-03-01T05:09:24;18.70;;;10.57;;
12966;SDS011;6548;49.996;8.238;2023-03-01T05:11:50;19.58;;;9.70;;
12966;SDS011;6548;49.996;8.238;2023-03-01T05:14:16;18.40;;;8.65;;
12966;SDS011;6548;49.996;8.238;2023-03-01T05:16:42;18.77;;;9.82;;
12966;SDS011;6548;49.996;8.238;2023-03-01T05:19:07;17.95;;;9.48;;
12966;SDS011;6548;49.996;8.238;2023-03-01T05:21:40;16.73;;;9.00;;
12966;SDS011;6548;49.996;8.238;2023-03-01T05:24:25;20.55;;;11.07;;
12966;SDS011;6548;49.996;8.238;2023-03-01T05:26:51;18.88;;;9.05;;
12966;SDS011;6548;49.996;8.238;2023-03-01T05:29:18;18.63;;;9.82;;
12966;SDS011;6548;49.996;8.238;2023-03-01T05:31:49;17.90;;;9.38;;
12966;SDS011;6548;49.996;8.238;2023-03-01T05:34:30;19.30;;;9.10;;
12966;SDS011;6548;49.996;8.238;2023-03-01T05:36:58;20.02;;;10.20;;
12966;SDS011;6548;49.996;8.238;2023-03-01T05:39:25;16.88;;;9.48;;
12966;SDS011;6548;49.996;8.238;2023-03-01T05:41:52;22.88;;;9.85;;
12966;SDS011;6548;49.996;8.238;2023-03-01T05:44:19;20.52;;;9.45;;
12966;SDS011;6548;49.996;8.238;2023-03-01T05:46:45;17.38;;;9.18;;
12966;SDS011;6548;49.996;8.238;2023-03-01T05:49:11;18.95;;;9.40;;
12966;SDS011;6548;49.996;8.238;2023-03-01T05:51:38;21.65;;;11.25;;
12966;SDS011;6548;49.996;8.238;2023-03-01T05:54:04;20.27;;;10.88;;
12966;SDS011;6548;49.996;8.238;2023-03-01T05:56:31;22.52;;;10.38;;
12966;SDS011;6548;49.996;8.238;2023-03-01T05:58:58;17.83;;;9.68;;
12966;SDS011;6548;49.996;8.238;2023-03-01T06:01:23;19.92;;;10.05;;
12966;SDS011;6548;49.996;8.238;2023-03-01T06:03:49;17.70;;;9.60;;
12966;SDS011;6548;49.996;8.238;2023-03-01T06:06:14;18.65;;;9.20;;
12966;SDS011;6548;49.996;8.238;2023-03-01T06:08:40;17.48;;;9.82;;
12966;SDS011;6548;49.996;8.238;2023-03-01T06:11:05;15.05;;;9.50;;
12966;SDS011;6548;49.996;8.238;2023-03-01T06:13:32;20.00;;;9.48;;
12966;SDS011;6548;49.996;8.238;2023-03-01T06:15:58;20.98;;;10.95;;
12966;SDS011;6548;49.996;8.238;2023-03-01T06:18:23;9.70;;;5.03;;
12966;SDS011;6548;49.996;8.238;2023-03-01T06:20:53;11.38;;;6.43;;
12966;SDS011;6548;49.996;8.238;2023-03-01T06:23:19;21.17;;;10.18;;
12966;SDS011;6548;49.996;8.238;2023-03-01T06:25:44;18.05;;;8.90;;
12966;SDS011;6548;49.996;8.238;2023-03-01T06:28:10;20.08;;;9.38;;
12966;SDS011;6548;49.996;8.238;2023-03-01T06:30:35;19.73;;;9.02;;
12966;SDS011;6548;49.996;8.238;2023-03-01T06:33:01;18.02;;;9.85;;
12966;SDS011;6548;49.996;8.238;2023-03-01T06:35:28;24.77;;;10.80;;
12966;SDS011;6548;49.996;8.238;2023-03-01T06:37:57;22.40;;;9.80;;
12966;SDS011;6548;49.996;8.238;2023-03-01T06:40:23;21.42;;;10.43;;
12966;SDS011;6548;49.996;8.238;2023-03-01T06:42:50;18.23;;;7.78;;
12966;SDS011;6548;49.996;8.238;2023-03-01T06:45:17;18.27;;;9.60;;
12966;SDS011;6548;49.996;8.238;2023-03-01T06:47:44;19.45;;;9.65;;
12966;SDS011;6548;49.996;8.238;2023-03-01T06:50:09;15.52;;;7.95;;
12966;SDS011;6548;49.996;8.238;2023-03-01T06:52:35;18.63;;;8.98;;
12966;SDS011;6548;49.996;8.238;2023-03-01T06:55:01;15.73;;;8.15;;
12966;SDS011;6548;49.996;8.238;2023-03-01T06:57:27;15.15;;;8.40;;
12966;SDS011;6548;49.996;8.238;2023-03-01T06:59:53;18.30;;;9.63;;
12966;SDS011;6548;49.996;8.238;2023-03-01T07:02:19;17.63;;;8.63;;
12966;SDS011;6548;49.996;8.238;2023-03-01T07:04:45;13.75;;;8.95;;
12966;SDS011;6548;49.996;8.238;2023-03-01T07:07:10;16.42;;;8.90;;
12966;SDS011;6548;49.996;8.238;2023-03-01T07:09:36;12.13;;;6.95;;
12966;SDS011;6548;49.996;8.238;2023-03-01T07:12:02;18.45;;;8.90;;
12966;SDS011;6548;49.996;8.238;2023-03-01T07:14:28;18.15;;;8.75;;
12966;SDS011;6548;49.996;8.238;2023-03-01T07:16:54;15.88;;;9.52;;
12966;SDS011;6548;49.996;8.238;2023-03-01T07:19:25;21.70;;;9.00;;
12966;SDS011;6548;49.996;8.238;2023-03-01T07:21:50;9.82;;;5.93;;
12966;SDS011;6548;49.996;8.238;2023-03-01T07:24:16;11.45;;;5.45;;
12966;SDS011;6548;49.996;8.238;2023-03-01T07:26:41;20.55;;;11.05;;
12966;SDS011;6548;49.996;8.238;2023-03-01T07:29:07;16.42;;;9.27;;
12966;SDS011;6548;49.996;8.238;2023-03-01T07:31:34;23.35;;;9.35;;
12966;SDS011;6548;49.996;8.238;2023-03-01T07:34:00;10.23;;;5.65;;
12966;SDS011;6548;49.996;8.238;2023-03-01T07:36:26;14.90;;;9.27;;
12966;SDS011;6548;49.996;8.238;2023-03-01T07:38:51;20.05;;;9.13;;
12966;SDS011;6548;49.996;8.238;2023-03-01T07:41:17;14.55;;;8.82;;
12966;SDS011;6548;49.996;8.238;2023-03-01T07:43:44;22.45;;;9.25;;
12966;SDS011;6548;49.996;8.238;2023-03-01T07:46:09;16.52;;;9.25;;
12966;SDS011;6548;49.996;8.238;2023-03-01T07:48:35;19.73;;;10.13;;
12966;SDS011;6548;49.996;8.238;2023-03-01T07:51:01;14.40;;;8.27;;
12966;SDS011;6548;49.996;8.238;2023-03-01T07:53:28;16.83;;;8.90;;
12966;SDS011;6548;49.996;8.238;2023-03-01T07:56:11;16.38;;;9.27;;
12966;SDS011;6548;49.996;8.238;2023-03-01T07:58:40;15.43;;;7.95;;
12966;SDS011;6548;49.996;8.238;2023-03-01T08:01:07;14.90;;;8.50;;
12966;SDS011;6548;49.996;8.238;2023-03-01T08:03:35;14.13;;;8.90;;
12966;SDS011;6548;49.996;8.238;2023-03-01T08:06:01;15.43;;;8.52;;
12966;SDS011;6548;49.996;8.238;2023-03-01T08:08:28;17.80;;;8.35;;
12966;SDS011;6548;49.996;8.238;2023-03-01T08:11:00;14.63;;;7.10;;
12966;SDS011;6548;49.996;8.238;2023-03-01T08:13:27;17.17;;;9.43;;
12966;SDS011;6548;49.996;8.238;2023-03-01T08:15:53;18.63;;;9.32;;
12966;SDS011;6548;49.996;8.238;2023-03-01T08:18:19;20.08;;;8.80;;
12966;SDS011;6548;49.996;8.238;2023-03-01T08:20:46;12.55;;;7.45;;
12966;SDS011;6548;49.996;8.238;2023-03-01T08:23:12;17.90;;;9.25;;
12966;SDS011;6548;49.996;8.238;2023-03-01T08:25:38;14.27;;;7.13;;
12966;SDS011;6548;49.996;8.238;2023-03-01T08:28:05;15.95;;;8.80;;
12966;SDS011;6548;49.996;8.238;2023-03-01T08:30:31;12.60;;;8.65;;
12966;SDS011;6548;49.996;8.238;2023-03-01T08:32:57;17.70;;;7.60;;
12966;SDS011;6548;49.996;8.238;2023-03-01T08:35:22;19.52;;;10.15;;
12966;SDS011;6548;49.996;8.238;2023-03-01T08:37:48;14.20;;;8.27;;
12966;SDS011;6548;49.996;8.238;2023-03-01T08:40:14;14.27;;;8.40;;
12966;SDS011;6548;49.996;8.238;2023-03-01T08:42:40;26.77;;;10.70;;
12966;SDS011;6548;49.996;8.238;2023-03-01T08:45:08;16.63;;;8.45;;
12966;SDS011;6548;49.996;8.238;2023-03-01T08:47:35;14.35;;;7.82;;
12966;SDS011;6548;49.996;8.238;2023-03-01T08:50:00;15.98;;;8.23;;
12966;SDS011;6548;49.996;8.238;2023-03-01T08:52:26;17.02;;;8.95;;
12966;SDS011;6548;49.996;8.238;2023-03-01T08:54:53;13.50;;;8.00;;
12966;SDS011;6548;49.996;8.238;2023-03-01T08:57:19;18.10;;;9.55;;
12966;SDS011;6548;49.996;8.238;2023-03-01T08:59:44;18.52;;;10.38;;
12966;SDS011;6548;49.996;8.238;2023-03-01T09:02:14;15.73;;;9.35;;
12966;SDS011;6548;49.996;8.238;2023-03-01T09:07:08;26.77;;;9.13;;
12966;SDS011;6548;49.996;8.238;2023-03-01T09:09:34;14.48;;;7.85;;
12966;SDS011;6548;49.996;8.238;2023-03-01T09:12:00;14.63;;;8.43;;
12966;SDS011;6548;49.996;8.238;2023-03-01T09:14:26;14.02;;;7.97;;
12966;SDS011;6548;49.996;8.238;2023-03-01T09:16:52;19.73;;;8.75;;
12966;SDS011;6548;49.996;8.238;2023-03-01T09:19:17;15.07;;;8.25;;
12966;SDS011;6548;49.996;8.238;2023-03-01T09:21:43;13.55;;;8.50;;
12966;SDS011;6548;49.996;8.238;2023-03-01T09:24:17;18.38;;;8.43;;
12966;SDS011;6548;49.996;8.238;2023-03-01T09:26:47;16.15;;;9.75;;
12966;SDS011;6548;49.996;8.238;2023-03-01T09:29:14;14.50;;;8.93;;
12966;SDS011;6548;49.996;8.238;2023-03-01T09:31:40;14.98;;;9.40;;
12966;SDS011;6548;49.996;8.238;2023-03-01T09:34:06;15.40;;;9.05;;
12966;SDS011;6548;49.996;8.238;2023-03-01T09:36:33;16.27;;;8.70;;
12966;SDS011;6548;49.996;8.238;2023-03-01T09:38:58;15.48;;;8.82;;
12966;SDS011;6548;49.996;8.238;2023-03-01T09:44:12;16.45;;;8.73;;
12966;SDS011;6548;49.996;8.238;2023-03-01T09:46:53;19.40;;;10.00;;
12966;SDS011;6548;49.996;8.238;2023-03-01T09:49:26;19.98;;;11.25;;
12966;SDS011;6548;49.996;8.238;2023-03-01T09:54:20;11.80;;;6.72;;
12966;SDS011;6548;49.996;8.238;2023-03-01T09:56:51;17.35;;;10.40;;
12966;SDS011;6548;49.996;8.238;2023-03-01T10:04:55;15.32;;;9.02;;
12966;SDS011;6548;49.996;8.238;2023-03-01T10:07:32;17.17;;;9.77;;
12966;SDS011;6548;49.996;8.238;2023-03-01T10:10:16;15.50;;;8.88;;
12966;SDS011;6548;49.996;8.238;2023-03-01T10:12:49;19.20;;;9.95;;
12966;SDS011;6548;49.996;8.238;2023-03-01T10:15:18;18.70;;;10.05;;
12966;SDS011;6548;49.996;8.238;2023-03-01T10:17:51;18.25;;;10.73;;
12966;SDS011;6548;49.996;8.238;2023-03-01T10:20:23;17.23;;;10.52;;
12966;SDS011;6548;49.996;8.238;2023-03-01T10:23:09;16.48;;;10.23;;
12966;SDS011;6548;49.996;8.238;2023-03-01T10:28:12;20.08;;;10.82;;
12966;SDS011;6548;49.996;8.238;2023-03-01T10:30:50;16.35;;;9.57;;
12966;SDS011;6548;49.996;8.238;2023-03-01T10:33:23;18.98;;;10.68;;
12966;SDS011;6548;49.996;8.238;2023-03-01T10:35:54;16.08;;;9.18;;
12966;SDS011;6548;49.996;8.238;2023-03-01T10:38:20;20.17;;;10.93;;
12966;SDS011;6548;49.996;8.238;2023-03-01T10:40:50;17.08;;;10.45;;
12966;SDS011;6548;49.996;8.238;2023-03-01T10:43:45;17.98;;;10.02;;
12966;SDS011;6548;49.996;8.238;2023-03-01T10:46:32;14.23;;;8.25;;
12966;SDS011;6548;49.996;8.238;2023-03-01T11:02:02;20.17;;;12.02;;
12966;SDS011;6548;49.996;8.238;2023-03-01T11:04:28;17.80;;;10.55;;
12966;SDS011;6548;49.996;8.238;2023-03-01T11:06:58;15.70;;;9.20;;
12966;SDS011;6548;49.996;8.238;2023-03-01T11:09:24;15.98;;;10.07;;
12966;SDS011;6548;49.996;8.238;2023-03-01T11:11:54;15.00;;;10.05;;
12966;SDS011;6548;49.996;8.238;2023-03-01T11:14:25;19.90;;;9.88;;
12966;SDS011;6548;49.996;8.238;2023-03-01T11:19:26;18.98;;;7.97;;
12966;SDS011;6548;49.996;8.238;2023-03-01T11:21:59;16.98;;;9.60;;
12966;SDS011;6548;49.996;8.238;2023-03-01T11:24:34;21.80;;;10.88;;
12966;SDS011;6548;49.996;8.238;2023-03-01T11:27:08;17.42;;;10.57;;
12966;SDS011;6548;49.996;8.238;2023-03-01T11:29:48;15.60;;;9.57;;
12966;SDS011;6548;49.996;8.238;2023-03-01T11:32:38;15.52;;;9.55;;
12966;SDS011;6548;49.996;8.238;2023-03-01T11:35:10;18.98;;;9.70;;
12966;SDS011;6548;49.996;8.238;2023-03-01T11:37:50;16.35;;;10.10;;
12966;SDS011;6548;49.996;8.238;2023-03-01T11:44:01;16.35;;;8.93;;
12966;SDS011;6548;49.996;8.238;2023-03-01T11:46:41;16.25;;;9.85;;
12966;SDS011;6548;49.996;8.238;2023-03-01T11:52:08;11.50;;;7.97;;
12966;SDS011;6548;49.996;8.238;2023-03-01T11:54:54;15.30;;;9.15;;
12966;SDS011;6548;49.996;8.238;2023-03-01T12:03:32;15.65;;;8.30;;
12966;SDS011;6548;49.996;8.238;2023-03-01T12:08:55;12.95;;;7.90;;
12966;SDS011;6548;49.996;8.238;2023-03-01T12:14:27;15.98;;;9.80;;
12966;SDS011;6548;49.996;8.238;2023-03-01T12:19:40;15.57;;;9.00;;
12966;SDS011;6548;49.996;8.238;2023-03-01T12:22:32;12.00;;;8.95;;
12966;SDS011;6548;49.996;8.238;2023-03-01T12:25:18;14.68;;;8.77;;
12966;SDS011;6548;49.996;8.238;2023-03-01T12:29:00;12.77;;;8.55;;
12966;SDS011;6548;49.996;8.238;2023-03-01T12:36:13;13.73;;;8.88;;
12966;SDS011;6548;49.996;8.238;2023-03-01T12:41:58;9.98;;;7.68;;
12966;SDS011;6548;49.996;8.238;2023-03-01T12:44:51;11.77;;;7.55;;
12966;SDS011;6548;49.996;8.238;2023-03-01T12:50:20;9.18;;;6.90;;
12966;SDS011;6548;49.996;8.238;2023-03-01T12:52:56;11.10;;;7.10;;
12966;SDS011;6548;49.996;8.238;2023-03-01T13:06:35;10.48;;;7.35;;
12966;SDS011;6548;49.996;8.238;2023-03-01T13:17:52;11.55;;;6.80;;
12966;SDS011;6548;49.996;8.238;2023-03-01T13:20:20;10.98;;;7.20;;
12966;SDS011;6548;49.996;8.238;2023-03-01T13:22:49;11.93;;;7.80;;
12966;SDS011;6548;49.996;8.238;2023-03-01T13:25:30;9.20;;;6.10;;
12966;SDS011;6548;49.996;8.238;2023-03-01T13:28:32;10.82;;;7.70;;
12966;SDS011;6548;49.996;8.238;2023-03-01T13:31:03;9.43;;;6.30;;
12966;SDS011;6548;49.996;8.238;2023-03-01T13:36:04;10.13;;;6.30;;
12966;SDS011;6548;49.996;8.238;2023-03-01T13:38:37;11.05;;;6.95;;
12966;SDS011;6548;49.996;8.238;2023-03-01T13:41:10;13.32;;;6.63;;
12966;SDS011;6548;49.996;8.238;2023-03-01T13:43:39;10.10;;;6.93;;
12966;SDS011;6548;49.996;8.238;2023-03-01T13:46:08;9.05;;;7.25;;
12966;SDS011;6548;49.996;8.238;2023-03-01T13:48:47;9.40;;;6.28;;
12966;SDS011;6548;49.996;8.238;2023-03-01T13:51:16;11.73;;;6.70;;
12966;SDS011;6548;49.996;8.238;2023-03-01T13:56:26;11.25;;;6.35;;
12966;SDS011;6548;49.996;8.238;2023-03-01T13:58:59;10.00;;;6.53;;
12966;SDS011;6548;49.996;8.238;2023-03-01T14:01:44;12.82;;;7.18;;
12966;SDS011;6548;49.996;8.238;2023-03-01T14:04:23;10.60;;;6.78;;
12966;SDS011;6548;49.996;8.238;2023-03-01T14:09:55;10.63;;;6.40;;
12966;SDS011;6548;49.996;8.238;2023-03-01T14:15:02;9.43;;;6.15;;
12966;SDS011;6548;49.996;8.238;2023-03-01T14:20:19;7.65;;;5.53;;
12966;SDS011;6548;49.996;8.238;2023-03-01T14:22:50;9.25;;;6.55;;
12966;SDS011;6548;49.996;8.238;2023-03-01T14:25:23;11.88;;;6.80;;
12966;SDS011;6548;49.996;8.238;2023-03-01T14:28:26;9.85;;;6.28;;
12966;SDS011;6548;49.996;8.238;2023-03-01T14:30:58;5.38;;;3.75;;
12966;SDS011;6548;49.996;8.238;2023-03-01T14:36:00;10.80;;;6.75;;
12966;SDS011;6548;49.996;8.238;2023-03-01T14:38:37;10.85;;;7.00;;
12966;SDS011;6548;49.996;8.238;2023-03-01T14:41:08;11.93;;;6.13;;
12966;SDS011;6548;49.996;8.238;2023-03-01T14:43:47;9.65;;;5.70;;
12966;SDS011;6548;49.996;8.238;2023-03-01T14:46:18;10.65;;;6.43;;
12966;SDS011;6548;49.996;8.238;2023-03-01T14:48:48;8.93;;;6.05;;
12966;SDS011;6548;49.996;8.238;2023-03-01T14:51:19;9.18;;;5.95;;
12966;SDS011;6548;49.996;8.238;2023-03-01T14:53:45;9.52;;;6.03;;
12966;SDS011;6548;49.996;8.238;2023-03-01T14:56:15;10.77;;;6.93;;
12966;SDS011;6548;49.996;8.238;2023-03-01T14:58:42;11.18;;;6.80;;
12966;SDS011;6548;49.996;8.238;2023-03-01T15:01:10;9.05;;;6.20;;
12966;SDS011;6548;49.996;8.238;2023-03-01T15:03:41;9.55;;;6.38;;
12966;SDS011;6548;49.996;8.238;2023-03-01T15:06:14;11.05;;;6.65;;
12966;SDS011;6548;49.996;8.238;2023-03-01T15:08:42;11.45;;;6.90;;
12966;SDS011;6548;49.996;8.238;2023-03-01T15:11:19;8.63;;;5.80;;
12966;SDS011;6548;49.996;8.238;2023-03-01T15:13:49;8.63;;;6.03;;
12966;SDS011;6548;49.996;8.238;2023-03-01T15:16:19;10.80;;;7.10;;
12966;SDS011;6548;49.996;8.238;2023-03-01T15:23:58;8.87;;;6.03;;
12966;SDS011;6548;49.996;8.238;2023-03-01T15:26:31;8.85;;;5.85;;
12966;SDS011;6548;49.996;8.238;2023-03-01T15:29:02;8.98;;;6.05;;
12966;SDS011;6548;49.996;8.238;2023-03-01T15:31:29;10.23;;;5.97;;
12966;SDS011;6548;49.996;8.238;2023-03-01T15:36:50;8.35;;;5.75;;
12966;SDS011;6548;49.996;8.238;2023-03-01T15:39:31;8.75;;;5.93;;
12966;SDS011;6548;49.996;8.238;2023-03-01T15:45:10;10.55;;;6.13;;
12966;SDS011;6548;49.996;8.238;2023-03-01T15:47:55;11.02;;;6.82;;
12966;SDS011;6548;49.996;8.238;2023-03-01T15:50:27;8.02;;;6.18;;
12966;SDS011;6548;49.996;8.238;2023-03-01T15:52:55;10.07;;;6.13;;
12966;SDS011;6548;49.996;8.238;2023-03-01T15:55:22;9.13;;;6.78;;
12966;SDS011;6548;49.996;8.238;2023-03-01T16:00:50;14.68;;;7.47;;
12966;SDS011;6548;49.996;8.238;2023-03-01T16:03:21;10.90;;;6.57;;
12966;SDS011;6548;49.996;8.238;2023-03-01T16:05:48;9.70;;;6.28;;
12966;SDS011;6548;49.996;8.238;2023-03-01T16:08:14;9.07;;;6.25;;
12966;SDS011;6548;49.996;8.238;2023-03-01T16:10:41;9.45;;;5.82;;
12966;SDS011;6548;49.996;8.238;2023-03-01T16:13:08;9.70;;;6.03;;
12966;SDS011;6548;49.996;8.238;2023-03-01T16:15:35;10.27;;;5.82;;
12966;SDS011;6548;49.996;8.238;2023-03-01T16:18:01;11.27;;;6.63;;
12966;SDS011;6548;49.996;8.238;2023-03-01T16:20:28;9.18;;;5.25;;
12966;SDS011;6548;49.996;8.238;2023-03-01T16:22:54;11.80;;;6.47;;
12966;SDS011;6548;49.996;8.238;2023-03-01T16:25:27;10.80;;;6.20;;
12966;SDS011;6548;49.996;8.238;2023-03-01T16:27:53;9.75;;;5.93;;
12966;SDS011;6548;49.996;8.238;2023-03-01T16:30:21;8.32;;;4.65;;
12966;SDS011;6548;49.996;8.238;2023-03-01T16:32:47;9.65;;;6.40;;
12966;SDS011;6548;49.996;8.238;2023-03-01T16:35:14;10.77;;;6.40;;
12966;SDS011;6548;49.996;8.238;2023-03-01T16:37:41;11.73;;;6.13;;
12966;SDS011;6548;49.996;8.238;2023-03-01T16:40:18;11.60;;;6.28;;
12966;SDS011;6548;49.996;8.238;2023-03-01T16:42:44;11.20;;;5.90;;
12966;SDS011;6548;49.996;8.238;2023-03-01T16:45:09;10.68;;;5.55;;
12966;SDS011;6548;49.996;8.238;2023-03-01T16:47:35;11.48;;;6.43;;
12966;SDS011;6548;49.996;8.238;2023-03-01T16:50:01;14.27;;;6.13;;
12966;SDS011;6548;49.996;8.238;2023-03-01T16:52:26;12.65;;;6.82;;
12966;SDS011;6548;49.996;8.238;2023-03-01T16:54:52;9.77;;;4.95;;
12966;SDS011;6548;49.996;8.238;2023-03-01T16:57:18;13.15;;;6.47;;
12966;SDS011;6548;49.996;8.238;2023-03-01T16:59:43;10.73;;;5.78;;
12966;SDS011;6548;49.996;8.238;2023-03-01T17:02:10;9.75;;;5.82;;
12966;SDS011;6548;49.996;8.238;2023-03-01T17:04:40;12.13;;;7.20;;